sensor_id;sensor_type;location;lat;lon;timestamp;P1;durP1;ratioP1;P2;durP2;ratioP2
75647;SDS011;66269;51.466;7.260;2023-03-01T00:01:52;6.25;;;3.53;;
75647;SDS011;66269;51.466;7.260;2023-03-01T00:04:17;7.00;;;3.30;;
75647;SDS011;66269;51.466;7.260;2023-03-01T00:06:43;6.65;;;3.10;;
75647;SDS011;66269;51.466;7.260;2023-03-01T00:09:11;5.95;;;3.10;;
75647;SDS011;66269;51.466;7.260;2023-03-01T00:11:37;6.15;;;3.15;;
75647;SDS011;66269;51.466;7.260;2023-03-01T00:14:03;7.53;;;3.67;;
75647;SDS011;66269;51.466;7.260;2023-03-01T00:16:30;6.72;;;3.35;;
75647;SDS011;66269;51.466;7.260;2023-03-01T00:18:58;6.20;;;3.08;;
75647;SDS011;66269;51.466;7.260;2023-03-01T00:21:24;6.38;;;3.15;;
75647;SDS011;66269;51.466;7.260;2023-03-01T00:23:51;6.85;;;3.40;;
75647;SDS011;66269;51.466;7.260;2023-03-01T00:26:18;6.20;;;3.28;;
75647;SDS011;66269;51.466;7.260;2023-03-01T00:28:44;7.18;;;3.60;;
75647;SDS011;66269;51.466;7.260;2023-03-01T00:31:12;6.05;;;3.25;;
75647;SDS011;66269;51.466;7.260;2023-03-01T00:33:39;6.00;;;3.25;;
75647;SDS011;66269;51.466;7.260;2023-03-01T00:36:05;6.93;;;3.80;;
75647;SDS011;66269;51.466;7.260;2023-03-01T00:38:34;6.60;;;3.13;;
75647;SDS011;66269;51.466;7.260;2023-03-01T00:41:05;7.20;;;3.38;;
75647;SDS011;66269;51.466;7.260;2023-03-01T00:43:34;6.50;;;3.45;;
75647;SDS011;66269;51.466;7.260;2023-03-01T00:46:04;6.68;;;3.47;;
75647;SDS011;66269;51.466;7.260;2023-03-01T00:48:31;6.68;;;3.42;;
75647;SDS011;66269;51.466;7.260;2023-03-01T00:50:57;7.30;;;3.40;;
75647;SDS011;66269;51.466;7.260;2023-03-01T00:53:33;6.00;;;3.25;;
75647;SDS011;66269;51.466;7.260;2023-03-01T00:56:00;6.85;;;3.38;;
75647;SDS011;66269;51.466;7.260;2023-03-01T00:58:26;7.18;;;3.63;;
75647;SDS011;66269;51.466;7.260;2023-03-01T01:00:51;6.32;;;3.20;;
75647;SDS011;66269;51.466;7.260;2023-03-01T01:03:20;6.72;;;3.63;;
75647;SDS011;66269;51.466;7.260;2023-03-01T01:05:46;5.93;;;3.22;;
75647;SDS011;66269;51.466;7.260;2023-03-01T01:08:12;5.78;;;3.15;;
75647;SDS011;66269;51.466;7.260;2023-03-01T01:10:38;6.63;;;3.63;;
75647;SDS011;66269;51.466;7.260;2023-03-01T01:13:04;6.55;;;3.53;;
75647;SDS011;66269;51.466;7.260;2023-03-01T01:15:32;7.07;;;3.97;;
75647;SDS011;66269;51.466;7.260;2023-03-01T01:17:59;6.22;;;3.40;;
75647;SDS011;66269;51.466;7.260;2023-03-01T01:20:24;7.65;;;3.92;;
75647;SDS011;66269;51.466;7.260;2023-03-01T01:22:50;6.20;;;3.20;;
75647;SDS011;66269;51.466;7.260;2023-03-01T01:25:16;6.72;;;3.45;;
75647;SDS011;66269;51.466;7.260;2023-03-01T01:27:41;7.22;;;3.90;;
75647;SDS011;66269;51.466;7.260;2023-03-01T01:30:07;6.43;;;3.50;;
75647;SDS011;66269;51.466;7.260;2023-03-01T01:32:33;6.50;;;3.20;;
75647;SDS011;66269;51.466;7.260;2023-03-01T01:34:59;7.13;;;3.67;;
75647;SDS011;66269;51.466;7.260;2023-03-01T01:37:24;6.55;;;3.53;;
75647;SDS011;66269;51.466;7.260;2023-03-01T01:39:56;5.78;;;3.40;;
75647;SDS011;66269;51.466;7.260;2023-03-01T01:42:23;6.45;;;3.25;;
75647;SDS011;66269;51.466;7.260;2023-03-01T01:45:15;6.50;;;3.38;;
75647;SDS011;66269;51.466;7.260;2023-03-01T01:47:55;7.63;;;3.53;;
75647;SDS011;66269;51.466;7.260;2023-03-01T01:50:27;6.40;;;3.67;;
75647;SDS011;66269;51.466;7.260;2023-03-01T01:55:30;6.43;;;3.45;;
75647;SDS011;66269;51.466;7.260;2023-03-01T01:57:57;5.95;;;3.10;;
75647;SDS011;66269;51.466;7.260;2023-03-01T02:00:27;7.13;;;3.85;;
75647;SDS011;66269;51.466;7.260;2023-03-01T02:02:55;7.25;;;3.72;;
75647;SDS011;66269;51.466;7.260;2023-03-01T02:05:26;6.97;;;3.60;;
75647;SDS011;66269;51.466;7.260;2023-03-01T02:08:16;6.45;;;3.80;;
75647;SDS011;66269;51.466;7.260;2023-03-01T02:10:44;6.68;;;3.63;;
75647;SDS011;66269;51.466;7.260;2023-03-01T02:13:11;6.28;;;3.60;;
75647;SDS011;66269;51.466;7.260;2023-03-01T02:15:38;6.43;;;3.30;;
75647;SDS011;66269;51.466;7.260;2023-03-01T02:18:05;6.70;;;3.90;;
75647;SDS011;66269;51.466;7.260;2023-03-01T02:20:38;7.72;;;3.85;;
75647;SDS011;66269;51.466;7.260;2023-03-01T02:23:10;7.18;;;3.80;;
75647;SDS011;66269;51.466;7.260;2023-03-01T02:31:05;6.90;;;3.80;;
75647;SDS011;66269;51.466;7.260;2023-03-01T02:33:50;7.00;;;3.38;;
75647;SDS011;66269;51.466;7.260;2023-03-01T02:36:19;6.53;;;3.35;;
75647;SDS011;66269;51.466;7.260;2023-03-01T02:38:48;6.93;;;3.85;;
75647;SDS011;66269;51.466;7.260;2023-03-01T02:41:16;7.55;;;3.78;;
75647;SDS011;66269;51.466;7.260;2023-03-01T02:43:44;7.38;;;3.78;;
75647;SDS011;66269;51.466;7.260;2023-03-01T02:46:15;6.63;;;3.80;;
75647;SDS011;66269;51.466;7.260;2023-03-01T02:48:44;7.00;;;3.92;;
75647;SDS011;66269;51.466;7.260;2023-03-01T02:51:24;6.95;;;4.07;;
75647;SDS011;66269;51.466;7.260;2023-03-01T02:54:10;6.65;;;3.55;;
75647;SDS011;66269;51.466;7.260;2023-03-01T02:56:38;6.30;;;3.47;;
75647;SDS011;66269;51.466;7.260;2023-03-01T02:59:04;6.80;;;3.38;;
75647;SDS011;66269;51.466;7.260;2023-03-01T03:01:30;6.80;;;3.80;;
75647;SDS011;66269;51.466;7.260;2023-03-01T03:04:03;6.55;;;3.80;;
75647;SDS011;66269;51.466;7.260;2023-03-01T03:06:30;6.95;;;4.03;;
75647;SDS011;66269;51.466;7.260;2023-03-01T03:08:55;5.93;;;3.45;;
75647;SDS011;66269;51.466;7.260;2023-03-01T03:11:24;6.90;;;3.63;;
75647;SDS011;66269;51.466;7.260;2023-03-01T03:13:50;7.25;;;3.53;;
75647;SDS011;66269;51.466;7.260;2023-03-01T03:16:17;6.88;;;3.78;;
75647;SDS011;66269;51.466;7.260;2023-03-01T03:18:43;7.22;;;4.00;;
75647;SDS011;66269;51.466;7.260;2023-03-01T03:21:09;6.82;;;4.00;;
75647;SDS011;66269;51.466;7.260;2023-03-01T03:23:36;7.05;;;3.95;;
75647;SDS011;66269;51.466;7.260;2023-03-01T03:26:02;6.38;;;3.55;;
75647;SDS011;66269;51.466;7.260;2023-03-01T03:28:33;7.38;;;3.72;;
75647;SDS011;66269;51.466;7.260;2023-03-01T03:30:58;6.72;;;3.55;;
75647;SDS011;66269;51.466;7.260;2023-03-01T03:33:28;7.70;;;4.10;;
75647;SDS011;66269;51.466;7.260;2023-03-01T03:35:54;6.88;;;3.85;;
75647;SDS011;66269;51.466;7.260;2023-03-01T03:38:20;6.50;;;3.88;;
75647;SDS011;66269;51.466;7.260;2023-03-01T03:40:50;7.68;;;4.00;;
75647;SDS011;66269;51.466;7.260;2023-03-01T03:43:28;7.45;;;4.05;;
75647;SDS011;66269;51.466;7.260;2023-03-01T03:45:55;7.03;;;3.50;;
75647;SDS011;66269;51.466;7.260;2023-03-01T03:48:24;7.20;;;3.97;;
75647;SDS011;66269;51.466;7.260;2023-03-01T03:50:51;6.70;;;3.83;;
75647;SDS011;66269;51.466;7.260;2023-03-01T03:53:19;6.97;;;4.20;;
75647;SDS011;66269;51.466;7.260;2023-03-01T03:55:45;6.78;;;3.72;;
75647;SDS011;66269;51.466;7.260;2023-03-01T03:58:14;6.30;;;3.50;;
75647;SDS011;66269;51.466;7.260;2023-03-01T04:00:41;7.82;;;4.05;;
75647;SDS011;66269;51.466;7.260;2023-03-01T04:03:09;6.55;;;3.72;;
75647;SDS011;66269;51.466;7.260;2023-03-01T04:05:36;7.20;;;3.97;;
75647;SDS011;66269;51.466;7.260;2023-03-01T04:08:03;8.00;;;3.80;;
75647;SDS011;66269;51.466;7.260;2023-03-01T04:10:33;6.85;;;3.67;;
75647;SDS011;66269;51.466;7.260;2023-03-01T04:13:02;6.30;;;3.78;;
75647;SDS011;66269;51.466;7.260;2023-03-01T04:15:28;7.78;;;4.13;;
75647;SDS011;66269;51.466;7.260;2023-03-01T04:17:54;7.72;;;4.05;;
75647;SDS011;66269;51.466;7.260;2023-03-01T04:20:22;6.97;;;3.97;;
75647;SDS011;66269;51.466;7.260;2023-03-01T04:22:56;6.40;;;3.70;;
75647;SDS011;66269;51.466;7.260;2023-03-01T04:25:35;7.10;;;3.90;;
75647;SDS011;66269;51.466;7.260;2023-03-01T04:28:02;7.00;;;4.20;;
75647;SDS011;66269;51.466;7.260;2023-03-01T04:30:28;6.72;;;3.80;;
75647;SDS011;66269;51.466;7.260;2023-03-01T04:32:53;7.88;;;3.97;;
75647;SDS011;66269;51.466;7.260;2023-03-01T04:35:19;6.75;;;3.60;;
75647;SDS011;66269;51.466;7.260;2023-03-01T04:37:45;8.05;;;4.38;;
75647;SDS011;66269;51.466;7.260;2023-03-01T04:40:11;6.80;;;4.10;;
75647;SDS011;66269;51.466;7.260;2023-03-01T04:42:41;6.70;;;3.90;;
75647;SDS011;66269;51.466;7.260;2023-03-01T04:45:07;7.03;;;4.30;;
75647;SDS011;66269;51.466;7.260;2023-03-01T04:47:38;6.97;;;4.05;;
75647;SDS011;66269;51.466;7.260;2023-03-01T04:50:05;7.82;;;4.10;;
75647;SDS011;66269;51.466;7.260;2023-03-01T04:52:32;6.20;;;3.53;;
75647;SDS011;66269;51.466;7.260;2023-03-01T04:54:57;6.90;;;3.78;;
75647;SDS011;66269;51.466;7.260;2023-03-01T04:57:23;6.97;;;4.03;;
75647;SDS011;66269;51.466;7.260;2023-03-01T04:59:48;6.78;;;4.00;;
75647;SDS011;66269;51.466;7.260;2023-03-01T05:02:14;7.30;;;3.78;;
75647;SDS011;66269;51.466;7.260;2023-03-01T05:04:39;8.23;;;4.45;;
75647;SDS011;66269;51.466;7.260;2023-03-01T05:07:05;6.95;;;3.85;;
75647;SDS011;66269;51.466;7.260;2023-03-01T05:09:30;7.15;;;3.88;;
75647;SDS011;66269;51.466;7.260;2023-03-01T05:11:56;7.38;;;4.18;;
75647;SDS011;66269;51.466;7.260;2023-03-01T05:14:21;7.03;;;3.85;;
75647;SDS011;66269;51.466;7.260;2023-03-01T05:16:47;7.78;;;4.03;;
75647;SDS011;66269;51.466;7.260;2023-03-01T05:19:13;7.50;;;3.92;;
75647;SDS011;66269;51.466;7.260;2023-03-01T05:21:40;8.05;;;3.95;;
75647;SDS011;66269;51.466;7.260;2023-03-01T05:24:25;8.50;;;4.07;;
75647;SDS011;66269;51.466;7.260;2023-03-01T05:26:51;7.88;;;4.05;;
75647;SDS011;66269;51.466;7.260;2023-03-01T05:29:18;7.28;;;3.67;;
75647;SDS011;66269;51.466;7.260;2023-03-01T05:31:49;6.60;;;3.97;;
75647;SDS011;66269;51.466;7.260;2023-03-01T05:34:17;7.20;;;3.95;;
75647;SDS011;66269;51.466;7.260;2023-03-01T05:36:42;6.68;;;3.80;;
75647;SDS011;66269;51.466;7.260;2023-03-01T05:39:08;6.78;;;3.63;;
75647;SDS011;66269;51.466;7.260;2023-03-01T05:41:33;6.90;;;3.80;;
75647;SDS011;66269;51.466;7.260;2023-03-01T05:43:59;7.38;;;3.97;;
75647;SDS011;66269;51.466;7.260;2023-03-01T05:46:24;6.72;;;4.13;;
75647;SDS011;66269;51.466;7.260;2023-03-01T05:48:50;7.20;;;3.90;;
75647;SDS011;66269;51.466;7.260;2023-03-01T05:51:15;7.47;;;3.97;;
75647;SDS011;66269;51.466;7.260;2023-03-01T05:53:41;7.20;;;3.72;;
75647;SDS011;66269;51.466;7.260;2023-03-01T05:56:06;7.90;;;3.90;;
75647;SDS011;66269;51.466;7.260;2023-03-01T05:58:32;6.38;;;3.50;;
75647;SDS011;66269;51.466;7.260;2023-03-01T06:00:57;6.25;;;3.70;;
75647;SDS011;66269;51.466;7.260;2023-03-01T06:03:23;7.60;;;4.10;;
75647;SDS011;66269;51.466;7.260;2023-03-01T06:05:48;7.53;;;4.18;;
75647;SDS011;66269;51.466;7.260;2023-03-01T06:08:14;6.55;;;3.80;;
75647;SDS011;66269;51.466;7.260;2023-03-01T06:10:40;7.13;;;4.00;;
75647;SDS011;66269;51.466;7.260;2023-03-01T06:13:06;7.07;;;3.88;;
75647;SDS011;66269;51.466;7.260;2023-03-01T06:15:31;7.72;;;3.83;;
75647;SDS011;66269;51.466;7.260;2023-03-01T06:17:57;7.50;;;3.90;;
75647;SDS011;66269;51.466;7.260;2023-03-01T06:20:23;7.88;;;3.50;;
75647;SDS011;66269;51.466;7.260;2023-03-01T06:22:50;7.10;;;3.72;;
75647;SDS011;66269;51.466;7.260;2023-03-01T06:25:16;6.32;;;3.20;;
75647;SDS011;66269;51.466;7.260;2023-03-01T06:27:44;6.80;;;4.03;;
75647;SDS011;66269;51.466;7.260;2023-03-01T06:30:11;6.43;;;3.90;;
75647;SDS011;66269;51.466;7.260;2023-03-01T06:32:39;6.18;;;3.30;;
75647;SDS011;66269;51.466;7.260;2023-03-01T06:35:09;8.00;;;3.83;;
75647;SDS011;66269;51.466;7.260;2023-03-01T06:37:35;6.55;;;3.42;;
75647;SDS011;66269;51.466;7.260;2023-03-01T06:40:02;6.78;;;3.53;;
75647;SDS011;66269;51.466;7.260;2023-03-01T06:42:36;6.57;;;3.13;;
75647;SDS011;66269;51.466;7.260;2023-03-01T06:45:06;8.15;;;3.33;;
75647;SDS011;66269;51.466;7.260;2023-03-01T06:47:35;7.97;;;3.78;;
75647;SDS011;66269;51.466;7.260;2023-03-01T06:50:01;6.38;;;3.42;;
75647;SDS011;66269;51.466;7.260;2023-03-01T06:52:28;6.15;;;3.40;;
75647;SDS011;66269;51.466;7.260;2023-03-01T06:54:54;6.05;;;3.47;;
75647;SDS011;66269;51.466;7.260;2023-03-01T06:57:19;7.97;;;3.47;;
75647;SDS011;66269;51.466;7.260;2023-03-01T06:59:46;6.22;;;3.30;;
75647;SDS011;66269;51.466;7.260;2023-03-01T07:02:12;6.75;;;3.22;;
75647;SDS011;66269;51.466;7.260;2023-03-01T07:04:39;6.65;;;3.50;;
75647;SDS011;66269;51.466;7.260;2023-03-01T07:07:04;7.03;;;3.22;;
75647;SDS011;66269;51.466;7.260;2023-03-01T07:09:30;5.65;;;3.03;;
75647;SDS011;66269;51.466;7.260;2023-03-01T07:11:56;6.25;;;3.00;;
75647;SDS011;66269;51.466;7.260;2023-03-01T07:14:22;6.20;;;3.13;;
75647;SDS011;66269;51.466;7.260;2023-03-01T07:16:51;6.13;;;3.05;;
75647;SDS011;66269;51.466;7.260;2023-03-01T07:19:17;5.78;;;3.00;;
75647;SDS011;66269;51.466;7.260;2023-03-01T07:21:43;6.55;;;3.28;;
75647;SDS011;66269;51.466;7.260;2023-03-01T07:24:08;6.63;;;3.20;;
75647;SDS011;66269;51.466;7.260;2023-03-01T07:26:34;5.82;;;3.08;;
75647;SDS011;66269;51.466;7.260;2023-03-01T07:29:00;5.85;;;2.97;;
75647;SDS011;66269;51.466;7.260;2023-03-01T07:31:28;6.38;;;3.17;;
75647;SDS011;66269;51.466;7.260;2023-03-01T07:33:54;7.30;;;3.03;;
75647;SDS011;66269;51.466;7.260;2023-03-01T07:36:19;5.20;;;2.78;;
75647;SDS011;66269;51.466;7.260;2023-03-01T07:38:45;5.70;;;3.03;;
75647;SDS011;66269;51.466;7.260;2023-03-01T07:41:11;6.20;;;2.80;;
75647;SDS011;66269;51.466;7.260;2023-03-01T07:43:37;7.00;;;2.88;;
75647;SDS011;66269;51.466;7.260;2023-03-01T07:46:03;5.57;;;3.08;;
75647;SDS011;66269;51.466;7.260;2023-03-01T07:48:29;5.75;;;2.85;;
75647;SDS011;66269;51.466;7.260;2023-03-01T07:51:02;5.50;;;2.90;;
75647;SDS011;66269;51.466;7.260;2023-03-01T07:53:29;5.88;;;2.70;;
75647;SDS011;66269;51.466;7.260;2023-03-01T07:58:29;5.93;;;3.10;;
75647;SDS011;66269;51.466;7.260;2023-03-01T08:00:54;5.60;;;2.80;;
75647;SDS011;66269;51.466;7.260;2023-03-01T08:03:20;5.40;;;2.95;;
75647;SDS011;66269;51.466;7.260;2023-03-01T08:05:45;5.68;;;2.72;;
75647;SDS011;66269;51.466;7.260;2023-03-01T08:08:11;5.50;;;2.85;;
75647;SDS011;66269;51.466;7.260;2023-03-01T08:10:36;5.15;;;2.67;;
75647;SDS011;66269;51.466;7.260;2023-03-01T08:13:02;5.80;;;2.92;;
75647;SDS011;66269;51.466;7.260;2023-03-01T08:15:28;6.15;;;2.75;;
75647;SDS011;66269;51.466;7.260;2023-03-01T08:17:53;6.47;;;3.00;;
75647;SDS011;66269;51.466;7.260;2023-03-01T08:20:19;5.22;;;3.00;;
75647;SDS011;66269;51.466;7.260;2023-03-01T08:22:44;5.60;;;2.78;;
75647;SDS011;66269;51.466;7.260;2023-03-01T08:25:10;5.93;;;2.90;;
75647;SDS011;66269;51.466;7.260;2023-03-01T08:27:35;6.28;;;3.08;;
75647;SDS011;66269;51.466;7.260;2023-03-01T08:30:04;5.15;;;2.50;;
75647;SDS011;66269;51.466;7.260;2023-03-01T08:32:34;5.00;;;2.65;;
75647;SDS011;66269;51.466;7.260;2023-03-01T08:35:01;4.95;;;2.60;;
75647;SDS011;66269;51.466;7.260;2023-03-01T08:37:26;5.75;;;2.65;;
75647;SDS011;66269;51.466;7.260;2023-03-01T08:39:55;5.43;;;2.70;;
75647;SDS011;66269;51.466;7.260;2023-03-01T08:42:21;5.90;;;2.75;;
75647;SDS011;66269;51.466;7.260;2023-03-01T08:44:47;5.75;;;2.50;;
75647;SDS011;66269;51.466;7.260;2023-03-01T08:47:12;5.25;;;2.60;;
75647;SDS011;66269;51.466;7.260;2023-03-01T08:49:39;5.88;;;2.70;;
75647;SDS011;66269;51.466;7.260;2023-03-01T08:52:04;4.90;;;2.72;;
75647;SDS011;66269;51.466;7.260;2023-03-01T08:54:30;5.65;;;2.78;;
75647;SDS011;66269;51.466;7.260;2023-03-01T08:56:55;5.32;;;2.67;;
75647;SDS011;66269;51.466;7.260;2023-03-01T08:59:24;6.50;;;3.05;;
75647;SDS011;66269;51.466;7.260;2023-03-01T09:01:51;6.53;;;2.75;;
75647;SDS011;66269;51.466;7.260;2023-03-01T09:04:16;5.57;;;2.65;;
75647;SDS011;66269;51.466;7.260;2023-03-01T09:06:42;6.53;;;2.40;;
75647;SDS011;66269;51.466;7.260;2023-03-01T09:09:10;6.40;;;2.85;;
75647;SDS011;66269;51.466;7.260;2023-03-01T09:11:40;5.63;;;2.50;;
75647;SDS011;66269;51.466;7.260;2023-03-01T09:14:05;5.55;;;2.78;;
75647;SDS011;66269;51.466;7.260;2023-03-01T09:16:32;4.55;;;2.40;;
75647;SDS011;66269;51.466;7.260;2023-03-01T09:19:00;5.40;;;2.60;;
75647;SDS011;66269;51.466;7.260;2023-03-01T09:21:27;5.80;;;2.63;;
75647;SDS011;66269;51.466;7.260;2023-03-01T09:23:53;6.25;;;2.70;;
75647;SDS011;66269;51.466;7.260;2023-03-01T09:26:22;6.43;;;2.42;;
75647;SDS011;66269;51.466;7.260;2023-03-01T09:28:49;5.10;;;2.28;;
75647;SDS011;66269;51.466;7.260;2023-03-01T09:31:16;5.40;;;2.67;;
75647;SDS011;66269;51.466;7.260;2023-03-01T09:33:45;5.88;;;2.78;;
75647;SDS011;66269;51.466;7.260;2023-03-01T09:36:14;5.30;;;2.80;;
75647;SDS011;66269;51.466;7.260;2023-03-01T09:38:44;5.85;;;2.55;;
75647;SDS011;66269;51.466;7.260;2023-03-01T09:44:05;5.20;;;2.50;;
75647;SDS011;66269;51.466;7.260;2023-03-01T09:46:53;5.75;;;2.42;;
75647;SDS011;66269;51.466;7.260;2023-03-01T09:49:22;4.57;;;2.10;;
75647;SDS011;66269;51.466;7.260;2023-03-01T09:51:55;4.43;;;2.15;;
75647;SDS011;66269;51.466;7.260;2023-03-01T09:54:41;5.40;;;2.20;;
75647;SDS011;66269;51.466;7.260;2023-03-01T09:57:16;5.28;;;2.42;;
75647;SDS011;66269;51.466;7.260;2023-03-01T10:05:15;4.90;;;2.40;;
75647;SDS011;66269;51.466;7.260;2023-03-01T10:10:46;4.30;;;1.75;;
75647;SDS011;66269;51.466;7.260;2023-03-01T10:15:53;5.38;;;2.50;;
75647;SDS011;66269;51.466;7.260;2023-03-01T10:18:26;5.30;;;2.25;;
75647;SDS011;66269;51.466;7.260;2023-03-01T10:21:00;4.75;;;1.98;;
75647;SDS011;66269;51.466;7.260;2023-03-01T10:23:29;5.28;;;2.15;;
75647;SDS011;66269;51.466;7.260;2023-03-01T10:26:16;4.78;;;2.20;;
75647;SDS011;66269;51.466;7.260;2023-03-01T10:29:06;5.10;;;2.25;;
75647;SDS011;66269;51.466;7.260;2023-03-01T10:34:14;4.85;;;1.98;;
75647;SDS011;66269;51.466;7.260;2023-03-01T10:36:43;5.57;;;2.58;;
75647;SDS011;66269;51.466;7.260;2023-03-01T10:39:16;5.10;;;2.10;;
75647;SDS011;66269;51.466;7.260;2023-03-01T10:41:57;4.93;;;2.03;;
75647;SDS011;66269;51.466;7.260;2023-03-01T10:44:35;4.97;;;2.10;;
75647;SDS011;66269;51.466;7.260;2023-03-01T10:47:03;5.93;;;2.00;;
75647;SDS011;66269;51.466;7.260;2023-03-01T10:49:29;4.40;;;2.05;;
75647;SDS011;66269;51.466;7.260;2023-03-01T10:51:54;5.80;;;2.22;;
75647;SDS011;66269;51.466;7.260;2023-03-01T10:54:27;5.18;;;2.10;;
75647;SDS011;66269;51.466;7.260;2023-03-01T10:56:58;4.90;;;1.73;;
75647;SDS011;66269;51.466;7.260;2023-03-01T10:59:32;4.93;;;2.25;;
75647;SDS011;66269;51.466;7.260;2023-03-01T11:07:00;4.53;;;2.00;;
75647;SDS011;66269;51.466;7.260;2023-03-01T11:09:30;4.75;;;2.03;;
75647;SDS011;66269;51.466;7.260;2023-03-01T11:12:03;4.43;;;2.00;;
75647;SDS011;66269;51.466;7.260;2023-03-01T11:14:38;5.10;;;2.10;;
75647;SDS011;66269;51.466;7.260;2023-03-01T11:20:09;4.60;;;2.28;;
75647;SDS011;66269;51.466;7.260;2023-03-01T11:22:42;4.88;;;1.90;;
75647;SDS011;66269;51.466;7.260;2023-03-01T11:25:23;4.60;;;2.08;;
75647;SDS011;66269;51.466;7.260;2023-03-01T11:27:52;4.30;;;2.03;;
75647;SDS011;66269;51.466;7.260;2023-03-01T11:30:21;4.47;;;1.95;;
75647;SDS011;66269;51.466;7.260;2023-03-01T11:33:18;4.68;;;2.08;;
75647;SDS011;66269;51.466;7.260;2023-03-01T11:38:32;4.45;;;1.90;;
75647;SDS011;66269;51.466;7.260;2023-03-01T11:51:41;4.50;;;1.92;;
75647;SDS011;66269;51.466;7.260;2023-03-01T11:56:52;4.60;;;1.92;;
75647;SDS011;66269;51.466;7.260;2023-03-01T11:59:41;4.68;;;2.10;;
75647;SDS011;66269;51.466;7.260;2023-03-01T12:02:15;4.00;;;2.03;;
75647;SDS011;66269;51.466;7.260;2023-03-01T12:05:00;4.70;;;2.15;;
75647;SDS011;66269;51.466;7.260;2023-03-01T12:07:46;4.38;;;2.00;;
75647;SDS011;66269;51.466;7.260;2023-03-01T12:10:52;4.72;;;2.08;;
75647;SDS011;66269;51.466;7.260;2023-03-01T12:28:01;4.20;;;2.00;;
75647;SDS011;66269;51.466;7.260;2023-03-01T12:33:57;4.70;;;2.00;;
75647;SDS011;66269;51.466;7.260;2023-03-01T12:39:41;4.80;;;1.83;;
75647;SDS011;66269;51.466;7.260;2023-03-01T12:42:37;5.05;;;1.92;;
75647;SDS011;66269;51.466;7.260;2023-03-01T12:45:32;4.30;;;1.85;;
75647;SDS011;66269;51.466;7.260;2023-03-01T12:50:56;4.73;;;2.13;;
75647;SDS011;66269;51.466;7.260;2023-03-01T12:53:32;4.93;;;2.15;;
75647;SDS011;66269;51.466;7.260;2023-03-01T12:56:05;4.50;;;2.00;;
75647;SDS011;66269;51.466;7.260;2023-03-01T13:01:14;4.60;;;2.00;;
75647;SDS011;66269;51.466;7.260;2023-03-01T13:06:29;4.70;;;1.85;;
75647;SDS011;66269;51.466;7.260;2023-03-01T13:11:31;3.85;;;1.60;;
75647;SDS011;66269;51.466;7.260;2023-03-01T13:14:34;4.57;;;2.00;;
75647;SDS011;66269;51.466;7.260;2023-03-01T13:16:44;4.57;;;2.05;;
75647;SDS011;66269;51.466;7.260;2023-03-01T13:19:17;4.30;;;1.92;;
75647;SDS011;66269;51.466;7.260;2023-03-01T13:21:48;4.60;;;2.10;;
75647;SDS011;66269;51.466;7.260;2023-03-01T13:27:08;4.45;;;1.67;;
75647;SDS011;66269;51.466;7.260;2023-03-01T13:29:45;4.88;;;2.03;;
75647;SDS011;66269;51.466;7.260;2023-03-01T13:32:20;4.28;;;1.73;;
75647;SDS011;66269;51.466;7.260;2023-03-01T13:37:41;4.63;;;2.00;;
75647;SDS011;66269;51.466;7.260;2023-03-01T13:42:47;4.63;;;1.90;;
75647;SDS011;66269;51.466;7.260;2023-03-01T13:45:34;4.60;;;1.90;;
75647;SDS011;66269;51.466;7.260;2023-03-01T13:48:08;4.10;;;1.90;;
75647;SDS011;66269;51.466;7.260;2023-03-01T13:50:45;4.32;;;2.00;;
75647;SDS011;66269;51.466;7.260;2023-03-01T13:53:15;5.00;;;1.90;;
75647;SDS011;66269;51.466;7.260;2023-03-01T13:55:51;4.78;;;2.10;;
75647;SDS011;66269;51.466;7.260;2023-03-01T13:58:24;4.22;;;1.80;;
75647;SDS011;66269;51.466;7.260;2023-03-01T14:00:58;4.63;;;1.83;;
75647;SDS011;66269;51.466;7.260;2023-03-01T14:03:25;4.93;;;1.80;;
75647;SDS011;66269;51.466;7.260;2023-03-01T14:06:07;4.78;;;2.00;;
75647;SDS011;66269;51.466;7.260;2023-03-01T14:08:47;4.53;;;2.00;;
75647;SDS011;66269;51.466;7.260;2023-03-01T14:19:29;4.13;;;2.00;;
75647;SDS011;66269;51.466;7.260;2023-03-01T14:22:00;4.97;;;2.05;;
75647;SDS011;66269;51.466;7.260;2023-03-01T14:24:49;4.40;;;1.88;;
75647;SDS011;66269;51.466;7.260;2023-03-01T14:27:23;4.55;;;1.77;;
75647;SDS011;66269;51.466;7.260;2023-03-01T14:29:59;4.75;;;2.10;;
75647;SDS011;66269;51.466;7.260;2023-03-01T14:32:27;4.30;;;1.80;;
75647;SDS011;66269;51.466;7.260;2023-03-01T14:34:55;4.50;;;1.92;;
75647;SDS011;66269;51.466;7.260;2023-03-01T14:37:43;4.45;;;1.90;;
75647;SDS011;66269;51.466;7.260;2023-03-01T14:40:19;3.83;;;1.83;;
75647;SDS011;66269;51.466;7.260;2023-03-01T14:42:47;4.38;;;1.73;;
75647;SDS011;66269;51.466;7.260;2023-03-01T14:45:13;4.32;;;1.80;;
75647;SDS011;66269;51.466;7.260;2023-03-01T14:47:39;3.97;;;1.70;;
75647;SDS011;66269;51.466;7.260;2023-03-01T14:50:09;4.60;;;1.90;;
75647;SDS011;66269;51.466;7.260;2023-03-01T14:52:50;4.43;;;1.77;;
75647;SDS011;66269;51.466;7.260;2023-03-01T14:55:20;4.35;;;1.83;;
75647;SDS011;66269;51.466;7.260;2023-03-01T14:57:51;4.07;;;1.90;;
75647;SDS011;66269;51.466;7.260;2023-03-01T15:00:21;4.78;;;1.98;;
75647;SDS011;66269;51.466;7.260;2023-03-01T15:02:50;4.15;;;1.92;;
75647;SDS011;66269;51.466;7.260;2023-03-01T15:05:18;4.40;;;1.98;;
75647;SDS011;66269;51.466;7.260;2023-03-01T15:07:56;4.63;;;1.80;;
75647;SDS011;66269;51.466;7.260;2023-03-01T15:10:28;4.47;;;1.98;;
75647;SDS011;66269;51.466;7.260;2023-03-01T15:13:19;3.95;;;1.75;;
75647;SDS011;66269;51.466;7.260;2023-03-01T15:15:47;4.43;;;1.90;;
75647;SDS011;66269;51.466;7.260;2023-03-01T15:20:42;4.05;;;1.60;;
75647;SDS011;66269;51.466;7.260;2023-03-01T15:25:51;3.92;;;1.70;;
75647;SDS011;66269;51.466;7.260;2023-03-01T15:28:29;4.18;;;1.77;;
75647;SDS011;66269;51.466;7.260;2023-03-01T15:30:59;4.20;;;1.70;;
75647;SDS011;66269;51.466;7.260;2023-03-01T15:33:30;4.57;;;1.90;;
75647;SDS011;66269;51.466;7.260;2023-03-01T15:35:59;4.30;;;1.85;;
75647;SDS011;66269;51.466;7.260;2023-03-01T15:40:54;3.95;;;1.80;;
75647;SDS011;66269;51.466;7.260;2023-03-01T15:43:37;4.20;;;1.60;;
75647;SDS011;66269;51.466;7.260;2023-03-01T15:46:13;5.00;;;1.90;;
75647;SDS011;66269;51.466;7.260;2023-03-01T15:48:48;4.75;;;1.80;;
75647;SDS011;66269;51.466;7.260;2023-03-01T15:51:18;4.18;;;1.85;;
75647;SDS011;66269;51.466;7.260;2023-03-01T15:53:51;3.95;;;1.80;;
75647;SDS011;66269;51.466;7.260;2023-03-01T15:56:18;3.50;;;1.40;;
75647;SDS011;66269;51.466;7.260;2023-03-01T15:58:43;4.50;;;1.70;;
75647;SDS011;66269;51.466;7.260;2023-03-01T16:01:13;4.10;;;1.70;;
75647;SDS011;66269;51.466;7.260;2023-03-01T16:03:41;4.07;;;1.60;;
75647;SDS011;66269;51.466;7.260;2023-03-01T16:06:08;4.65;;;1.90;;
75647;SDS011;66269;51.466;7.260;2023-03-01T16:08:35;4.50;;;1.73;;
75647;SDS011;66269;51.466;7.260;2023-03-01T16:11:00;4.28;;;1.70;;
75647;SDS011;66269;51.466;7.260;2023-03-01T16:13:29;4.72;;;1.70;;
75647;SDS011;66269;51.466;7.260;2023-03-01T16:15:56;4.55;;;1.80;;
75647;SDS011;66269;51.466;7.260;2023-03-01T16:18:22;4.18;;;1.80;;
75647;SDS011;66269;51.466;7.260;2023-03-01T16:20:47;4.72;;;1.70;;
75647;SDS011;66269;51.466;7.260;2023-03-01T16:23:14;4.00;;;1.77;;
75647;SDS011;66269;51.466;7.260;2023-03-01T16:25:40;4.53;;;1.85;;
75647;SDS011;66269;51.466;7.260;2023-03-01T16:28:05;4.30;;;1.67;;
75647;SDS011;66269;51.466;7.260;2023-03-01T16:30:34;4.28;;;1.70;;
75647;SDS011;66269;51.466;7.260;2023-03-01T16:33:00;3.75;;;1.48;;
75647;SDS011;66269;51.466;7.260;2023-03-01T16:35:26;4.20;;;1.60;;
75647;SDS011;66269;51.466;7.260;2023-03-01T16:37:52;4.32;;;1.50;;
75647;SDS011;66269;51.466;7.260;2023-03-01T16:42:46;3.70;;;1.50;;
75647;SDS011;66269;51.466;7.260;2023-03-01T16:45:12;4.10;;;1.55;;
75647;SDS011;66269;51.466;7.260;2023-03-01T16:47:38;3.30;;;1.30;;
75647;SDS011;66269;51.466;7.260;2023-03-01T16:50:03;3.83;;;1.63;;
75647;SDS011;66269;51.466;7.260;2023-03-01T16:52:29;4.20;;;1.70;;